Weather at Stockerau Airport

Public forecast

Using degrees Celsius for public forecast. Weather courtesy of forecast.io.

Closest aviation weather report (METAR) to Stockerau Airport

Closest report is Brumowski Air Base, 6.2 nm (11.4 km) SSW. Retrieved 2021/10/20 20:50 UTC (2 hours ago):

LOXT 202050Z 01002KT 30KM SCT200CI BKN250CI 11/10 Q1011 RMK WIND INFO EST/BKN

Closest aviation forecast (TAF) to Stockerau Airport

Forecast is more than 12 hours old.

Closest forecast is Brumowski Air Base, 6.2 nm (11.4 km) SSW. Retrieved 2010/04/07 08:00 UTC (12 years ago):

TAF LOXT 070800Z 0709/0918 VRB03KT 9999 SKC BECMG 0710/0712 05005KT FEW040